Time;durP1;ratioP1;P1;durP2;ratioP2;P2;SDS_P1;SDS_P2;PMS_P1;PMS_P2;Temp;Humidity;BMP_temperature;BMP_pressure;BME280_temperature;BME280_humidity;BME280_pressure;Samples;Min_cycle;Max_cycle;Signal;HPM_P1;HPM_P2
2023/10/15 00:00:15;;;;;;;10.70;1.60;;;;;;;9.41;54.10;101187.09;5018701;27;97460;-76
2023/10/15 00:02:42;;;;;;;3.43;1.00;;;;;;;9.37;54.04;101181.06;5018899;27;97009;-76
2023/10/15 00:05:21;;;;;;;4.83;1.23;;;;;;;9.39;54.02;101184.09;5021508;27;97119;-77
2023/10/15 00:07:48;;;;;;;6.47;1.10;;;;;;;9.38;54.18;101181.81;5021497;27;100823;-77
2023/10/15 00:10:22;;;;;;;3.10;1.30;;;;;;;9.38;54.22;101176.31;5023446;27;97136;-77
2023/10/15 00:12:50;;;;;;;4.47;1.13;;;;;;;9.36;54.19;101171.28;5023987;27;97249;-77
2023/10/15 00:15:20;;;;;;;7.37;1.20;;;;;;;9.35;54.26;101177.28;5035701;27;97332;-76
2023/10/15 00:17:52;;;;;;;4.00;1.27;;;;;;;9.31;54.04;101188.56;5021552;27;97192;-76
2023/10/15 00:20:21;;;;;;;4.73;1.83;;;;;;;9.30;54.05;101187.03;5026509;27;96771;-76
2023/10/15 00:22:50;;;;;;;4.93;1.20;;;;;;;9.29;54.25;101183.56;5039014;27;97455;-76
2023/10/15 00:25:18;;;;;;;5.80;1.30;;;;;;;9.29;54.33;101180.78;5026632;27;97246;-77
2023/10/15 00:27:54;;;;;;;5.03;0.97;;;;;;;9.28;54.22;101186.78;5025606;27;97120;-76
2023/10/15 00:30:20;;;;;;;3.60;1.13;;;;;;;9.26;54.18;101184.53;5025714;27;99913;-77
2023/10/15 00:32:47;;;;;;;6.13;1.60;;;;;;;9.23;54.19;101184.78;5025548;27;96771;-77
2023/10/15 00:35:14;;;;;;;5.53;1.80;;;;;;;9.21;54.29;101188.00;5039571;27;97162;-78
2023/10/15 00:37:58;;;;;;;3.67;1.23;;;;;;;9.19;54.12;101201.56;5026824;27;99787;-77
2023/10/15 00:40:25;;;;;;;9.03;1.50;;;;;;;9.17;54.19;101184.72;5028169;27;96818;-77
2023/10/15 00:42:51;;;;;;;3.33;1.37;;;;;;;9.13;54.14;101194.47;5045960;27;96834;-77
2023/10/15 00:45:20;;;;;;;14.60;1.73;;;;;;;9.12;54.38;101182.69;5026567;27;97089;-77
2023/10/15 00:47:52;;;;;;;6.13;1.67;;;;;;;9.08;54.41;101186.94;5029423;27;96966;-76
2023/10/15 00:50:18;;;;;;;4.53;1.27;;;;;;;9.04;54.40;101183.63;5033271;27;97851;-77
2023/10/15 00:52:43;;;;;;;5.37;1.60;;;;;;;9.00;54.32;101174.84;5035480;27;96783;-77
2023/10/15 00:55:19;;;;;;;5.57;1.60;;;;;;;8.97;54.22;101181.34;5037644;27;96641;-77
2023/10/15 00:57:48;;;;;;;3.57;1.13;;;;;;;8.97;54.28;101184.13;5036103;27;97200;-77
2023/10/15 01:03:03;;;;;;;6.40;1.10;;;;;;;8.90;54.25;101181.81;5038678;27;96787;-77
2023/10/15 01:05:33;;;;;;;3.30;1.10;;;;;;;8.88;54.49;101189.81;5033328;27;97042;-76
2023/10/15 01:08:03;;;;;;;3.27;1.20;;;;;;;8.85;54.48;101188.03;5026523;27;98208;-77
2023/10/15 01:10:49;;;;;;;4.23;1.00;;;;;;;8.81;54.63;101182.00;5027246;27;100653;-77
2023/10/15 01:13:20;;;;;;;7.50;1.57;;;;;;;8.83;54.56;101190.53;5024609;27;97171;-77
2023/10/15 01:15:48;;;;;;;4.10;1.20;;;;;;;8.81;54.46;101184.75;5023228;27;97852;-76
2023/10/15 01:18:13;;;;;;;3.33;1.10;;;;;;;8.82;54.54;101180.75;5023581;27;100469;-76
2023/10/15 01:20:45;;;;;;;1.83;1.00;;;;;;;8.82;54.55;101172.47;5025671;27;97010;-76
2023/10/15 01:23:31;;;;;;;5.60;1.33;;;;;;;8.79;54.61;101174.22;5025702;27;96588;-78
2023/10/15 01:25:59;;;;;;;8.27;1.23;;;;;;;8.75;54.64;101170.16;5025707;27;96938;-76
2023/10/15 01:28:36;;;;;;;5.27;1.17;;;;;;;8.73;54.67;101167.88;5029862;27;97237;-77
2023/10/15 01:31:04;;;;;;;5.83;1.63;;;;;;;8.70;54.78;101171.63;5023062;27;97233;-77
2023/10/15 01:33:30;;;;;;;5.37;1.43;;;;;;;8.71;54.60;101172.41;5025851;27;97268;-77
2023/10/15 01:35:58;;;;;;;7.60;1.60;;;;;;;8.68;54.64;101165.09;5022593;27;97428;-77
2023/10/15 01:38:27;;;;;;;8.93;1.57;;;;;;;8.67;54.66;101160.81;5022620;27;100417;-77
2023/10/15 01:40:56;;;;;;;3.10;1.37;;;;;;;8.63;54.82;101185.09;5022768;27;97396;-77
2023/10/15 01:43:22;;;;;;;6.70;1.37;;;;;;;8.59;54.79;101179.81;5021318;27;98506;-77
2023/10/15 01:45:49;;;;;;;4.87;1.83;;;;;;;8.53;55.03;101176.28;5020566;27;97890;-76
2023/10/15 01:48:24;;;;;;;1.53;0.70;;;;;;;8.52;54.99;101183.00;5036192;27;99680;-76
2023/10/15 01:50:50;;;;;;;7.33;1.50;;;;;;;8.52;54.79;101186.53;5023414;27;96942;-76
2023/10/15 01:53:16;;;;;;;2.53;1.30;;;;;;;8.51;54.94;101185.00;5023196;27;97467;-77
2023/10/15 01:55:54;;;;;;;7.20;1.10;;;;;;;8.52;55.07;101194.03;5021256;27;97465;-76
2023/10/15 01:58:32;;;;;;;13.23;1.70;;;;;;;8.51;55.01;101182.25;5022885;27;97837;-77
2023/10/15 02:01:09;;;;;;;5.57;1.20;;;;;;;8.52;55.24;101180.25;5022671;27;97375;-76
2023/10/15 02:03:35;;;;;;;5.57;1.20;;;;;;;8.49;55.16;101186.78;5024732;27;97258;-77
2023/10/15 02:06:06;;;;;;;2.67;1.57;;;;;;;8.51;55.24;101173.97;5020104;27;97165;-75
2023/10/15 02:08:33;;;;;;;5.10;1.20;;;;;;;8.47;55.03;101180.97;5021714;27;97276;-77
2023/10/15 02:11:03;;;;;;;6.37;1.43;;;;;;;8.45;55.23;101169.66;5018942;28;99001;-77
2023/10/15 02:13:30;;;;;;;4.63;1.37;;;;;;;8.43;55.02;101174.91;5022207;27;97838;-76
2023/10/15 02:15:56;;;;;;;4.30;1.40;;;;;;;8.40;55.34;101182.16;5019029;27;97435;-76
2023/10/15 02:18:21;;;;;;;2.90;0.93;;;;;;;8.34;55.26;101159.31;5022205;27;97179;-77
2023/10/15 02:21:00;;;;;;;4.27;1.40;;;;;;;8.38;55.29;101181.16;5022204;27;97150;-77
2023/10/15 02:23:26;;;;;;;3.60;1.60;;;;;;;8.33;55.42;101157.03;5025432;27;97094;-76
2023/10/15 02:25:58;;;;;;;3.03;1.13;;;;;;;8.36;55.17;101189.16;5017544;27;98128;-76
2023/10/15 02:28:26;;;;;;;6.83;1.40;;;;;;;8.37;55.41;101158.34;5023598;27;97863;-76
2023/10/15 02:31:06;;;;;;;4.63;1.57;;;;;;;8.37;55.39;101157.56;5021034;27;98964;-76
2023/10/15 02:33:31;;;;;;;4.80;1.27;;;;;;;8.35;55.32;101154.56;5022386;27;97056;-76
2023/10/15 02:35:59;;;;;;;8.00;1.20;;;;;;;8.34;55.26;101151.03;5015751;27;97486;-76
2023/10/15 02:38:26;;;;;;;4.77;1.60;;;;;;;8.36;55.52;101162.31;5037297;27;100386;-76
2023/10/15 02:41:04;;;;;;;4.20;1.30;;;;;;;8.36;55.41;101167.09;5018598;27;98915;-75
2023/10/15 02:43:30;;;;;;;3.37;1.20;;;;;;;8.30;55.30;101175.31;5022398;27;97588;-76
2023/10/15 02:46:12;;;;;;;5.50;1.40;;;;;;;8.27;55.36;101170.03;5020691;27;98242;-75
2023/10/15 02:48:41;;;;;;;2.53;1.10;;;;;;;8.27;55.43;101170.03;5019379;27;97809;-75
2023/10/15 02:51:10;;;;;;;10.40;1.27;;;;;;;8.25;55.47;101167.00;5021467;27;97965;-76
2023/10/15 02:53:39;;;;;;;4.07;1.20;;;;;;;8.26;55.49;101179.53;5021981;27;100668;-75
2023/10/15 02:56:11;;;;;;;4.70;1.27;;;;;;;8.24;55.39;101179.25;5018173;27;97803;-76
2023/10/15 02:58:38;;;;;;;3.00;1.20;;;;;;;8.20;55.65;101192.50;5021002;27;97071;-75
2023/10/15 03:01:12;;;;;;;2.40;0.80;;;;;;;8.15;55.67;101204.19;5019676;27;97049;-75
2023/10/15 03:03:37;;;;;;;5.13;1.27;;;;;;;8.14;55.81;101184.13;5020101;27;96663;-75
2023/10/15 03:06:09;;;;;;;2.83;1.10;;;;;;;8.13;55.68;101185.41;5020857;27;97458;-76
2023/10/15 03:08:36;;;;;;;3.97;1.07;;;;;;;8.09;55.80;101184.09;5022496;27;97493;-75
2023/10/15 03:11:12;;;;;;;1.87;1.00;;;;;;;8.12;55.67;101185.91;5021457;27;97499;-75
2023/10/15 03:13:49;;;;;;;2.70;0.70;;;;;;;8.12;55.89;101189.38;5022752;27;97394;-75
2023/10/15 03:16:15;;;;;;;2.13;1.03;;;;;;;8.13;55.91;101184.63;5023042;27;97323;-76
2023/10/15 03:18:40;;;;;;;4.77;1.10;;;;;;;8.12;55.78;101185.91;5022559;27;97760;-76
2023/10/15 03:21:15;;;;;;;2.80;0.90;;;;;;;8.12;56.13;101188.66;5022390;27;97124;-76
2023/10/15 03:23:42;;;;;;;2.90;1.07;;;;;;;8.08;55.86;101202.63;5025486;27;97123;-76
2023/10/15 03:26:09;;;;;;;3.83;1.30;;;;;;;8.10;55.80;101205.66;5021298;27;97336;-77
2023/10/15 03:28:35;;;;;;;1.53;0.90;;;;;;;8.11;56.08;101198.91;5023185;27;97322;-76
2023/10/15 03:31:00;;;;;;;3.17;0.80;;;;;;;8.09;55.79;101186.84;5019856;27;97544;-75
2023/10/15 03:33:30;;;;;;;4.03;1.13;;;;;;;8.08;55.82;101197.13;5023283;27;97286;-75
2023/10/15 03:35:56;;;;;;;5.23;1.00;;;;;;;8.10;55.93;101189.13;5023445;27;98509;-75
2023/10/15 03:38:32;;;;;;;3.80;0.90;;;;;;;8.11;56.04;101206.41;5010938;27;99119;-75
2023/10/15 03:43:45;;;;;;;4.17;1.00;;;;;;;8.06;56.19;101196.84;5023992;27;97315;-75
2023/10/15 03:46:19;;;;;;;2.80;0.83;;;;;;;8.04;56.02;101184.78;5022647;27;98419;-76
2023/10/15 03:48:48;;;;;;;2.83;0.67;;;;;;;8.07;55.98;101190.09;5014912;27;99766;-75
2023/10/15 03:51:20;;;;;;;1.93;0.70;;;;;;;8.03;56.20;101188.81;5018288;27;97074;-75
2023/10/15 03:53:49;;;;;;;1.20;0.60;;;;;;;8.00;56.21;101190.53;5018060;27;96887;-75
2023/10/15 03:56:19;;;;;;;3.57;0.80;;;;;;;8.02;56.17;101204.56;5020107;28;97291;-75
2023/10/15 03:58:45;;;;;;;6.33;1.37;;;;;;;7.99;56.23;101197.28;5015129;27;100383;-74
2023/10/15 04:01:17;;;;;;;1.77;0.70;;;;;;;7.96;56.25;101191.97;5015750;28;97536;-76
2023/10/15 04:03:49;;;;;;;3.50;1.20;;;;;;;7.96;56.31;101195.50;5017737;27;97395;-76
2023/10/15 04:06:19;;;;;;;2.07;0.77;;;;;;;7.95;56.35;101187.69;5019097;28;97050;-76
2023/10/15 04:11:30;;;;;;;1.53;0.90;;;;;;;7.90;56.39;101185.66;5017102;28;97064;-75
2023/10/15 04:13:57;;;;;;;1.87;0.97;;;;;;;7.90;56.35;101199.44;5017615;28;97059;-75
2023/10/15 04:16:23;;;;;;;2.23;0.73;;;;;;;7.87;56.26;101206.66;5017318;28;97630;-75
2023/10/15 04:18:48;;;;;;;3.10;0.80;;;;;;;7.89;56.32;101190.41;5018822;27;97587;-76
2023/10/15 04:21:16;;;;;;;3.23;1.00;;;;;;;7.90;56.43;101210.47;5019458;27;97768;-76
2023/10/15 04:23:45;;;;;;;1.90;0.80;;;;;;;7.91;56.27;101207.22;5018397;28;97067;-76
2023/10/15 04:26:13;;;;;;;6.50;0.73;;;;;;;7.93;56.46;101212.22;5017998;28;97146;-77
2023/10/15 04:28:40;;;;;;;1.07;0.60;;;;;;;7.95;56.26;101207.75;5018661;27;98863;-77
2023/10/15 04:31:11;;;;;;;3.33;0.60;;;;;;;7.95;56.53;101196.72;5017077;28;99062;-76
2023/10/15 04:33:41;;;;;;;0.90;0.53;;;;;;;7.96;56.30;101191.97;5035411;27;97322;-75
2023/10/15 04:36:09;;;;;;;0.60;0.43;;;;;;;7.98;56.48;101193.00;5030569;27;97317;-76
2023/10/15 04:38:36;;;;;;;1.40;0.50;;;;;;;7.97;56.31;101185.97;5016258;28;99901;-76
2023/10/15 04:41:03;;;;;;;2.50;0.60;;;;;;;7.99;56.26;101194.50;5032492;27;100143;-75
2023/10/15 04:43:40;;;;;;;1.40;0.50;;;;;;;7.97;56.30;101187.97;5020000;28;97193;-76
2023/10/15 04:46:07;;;;;;;0.80;0.50;;;;;;;7.94;56.45;101191.72;5017601;28;98873;-76
2023/10/15 04:48:36;;;;;;;0.90;0.60;;;;;;;7.91;56.33;101187.91;5017553;28;98255;-76
2023/10/15 04:51:04;;;;;;;1.80;0.70;;;;;;;7.90;56.33;101191.91;5017751;28;99111;-76
2023/10/15 04:53:31;;;;;;;2.17;0.40;;;;;;;7.92;56.45;101191.44;5018025;28;96955;-77
2023/10/15 04:55:57;;;;;;;1.53;0.70;;;;;;;7.91;56.43;101196.19;5019420;28;97254;-76
2023/10/15 04:58:27;;;;;;;1.60;0.77;;;;;;;7.91;56.37;101193.44;5019003;28;97220;-75
2023/10/15 05:00:54;;;;;;;1.50;0.53;;;;;;;7.89;56.32;101184.13;5035007;27;99291;-76
2023/10/15 05:03:20;;;;;;;2.73;0.73;;;;;;;7.90;56.52;101191.91;5031836;27;97246;-76
2023/10/15 05:05:46;;;;;;;1.37;0.53;;;;;;;7.86;56.33;101183.09;5017471;27;97365;-76
2023/10/15 05:08:13;;;;;;;0.97;0.70;;;;;;;7.85;56.40;101178.84;5017979;28;100924;-75
2023/10/15 05:10:50;;;;;;;0.97;0.50;;;;;;;7.83;56.59;101176.56;5022220;28;97047;-76
2023/10/15 05:13:16;;;;;;;1.10;0.47;;;;;;;7.81;56.42;101176.28;5020824;28;97367;-75
2023/10/15 05:15:48;;;;;;;0.83;0.50;;;;;;;7.82;56.48;101171.53;5022353;28;97207;-76
2023/10/15 05:18:18;;;;;;;3.83;0.60;;;;;;;7.79;56.54;101176.03;5018606;28;97858;-76
2023/10/15 05:20:47;;;;;;;0.70;0.50;;;;;;;7.76;56.63;101167.97;5021870;28;97623;-76
2023/10/15 05:23:13;;;;;;;0.90;0.57;;;;;;;7.76;56.71;101170.72;5018309;27;97080;-76
2023/10/15 05:25:39;;;;;;;0.93;0.40;;;;;;;7.76;56.43;101179.00;5021615;27;96810;-76
2023/10/15 05:28:05;;;;;;;0.50;0.30;;;;;;;7.74;56.79;101185.00;5017666;27;97941;-76
2023/10/15 05:30:31;;;;;;;1.10;0.40;;;;;;;7.73;56.67;101190.97;5021197;28;98037;-75
2023/10/15 05:32:56;;;;;;;3.63;0.67;;;;;;;7.70;56.62;101183.69;5019471;28;97073;-75
2023/10/15 05:35:21;;;;;;;0.73;0.33;;;;;;;7.68;56.67;101197.91;5019420;27;99698;-75
2023/10/15 05:37:47;;;;;;;1.03;0.40;;;;;;;7.67;56.94;101187.41;5021280;28;109639;-75
2023/10/15 05:40:12;;;;;;;2.40;0.50;;;;;;;7.66;56.80;101194.91;5021026;28;110251;-76
2023/10/15 05:42:38;;;;;;;1.27;0.60;;;;;;;7.68;56.78;101203.44;5020967;27;97239;-76
2023/10/15 05:45:07;;;;;;;0.80;0.47;;;;;;;7.65;56.95;101203.66;5021225;27;97066;-76
2023/10/15 05:47:33;;;;;;;1.03;0.30;;;;;;;7.66;56.85;101197.66;5019278;28;97713;-75
2023/10/15 05:49:59;;;;;;;4.33;0.63;;;;;;;7.65;57.14;101198.16;5021540;28;97793;-75
2023/10/15 05:52:25;;;;;;;3.23;0.50;;;;;;;7.60;56.98;101196.84;5018251;28;97196;-76
2023/10/15 05:54:53;;;;;;;0.60;0.30;;;;;;;7.60;56.94;101185.06;5018378;28;97516;-76
2023/10/15 05:57:21;;;;;;;0.70;0.40;;;;;;;7.61;56.99;101192.09;5018152;27;97278;-75
2023/10/15 05:59:47;;;;;;;2.93;0.73;;;;;;;7.63;57.21;101209.66;5020307;28;97301;-75
2023/10/15 06:02:13;;;;;;;2.07;0.50;;;;;;;7.65;56.94;101217.41;5019807;28;97661;-76
2023/10/15 06:04:38;;;;;;;1.20;0.43;;;;;;;7.64;56.97;101204.88;5019768;28;97221;-75
2023/10/15 06:07:05;;;;;;;1.17;0.57;;;;;;;7.65;57.08;101222.94;5020423;28;96730;-76
2023/10/15 06:09:31;;;;;;;2.20;0.60;;;;;;;7.66;57.13;101216.19;5022051;28;97303;-76
2023/10/15 06:11:56;;;;;;;0.70;0.50;;;;;;;7.65;57.23;101220.94;5018223;27;97739;-75
2023/10/15 06:14:23;;;;;;;0.70;0.30;;;;;;;7.67;56.97;101229.47;5018702;28;97784;-76
2023/10/15 06:16:52;;;;;;;1.23;0.50;;;;;;;7.66;56.85;101243.72;5019404;27;97812;-76
2023/10/15 06:19:18;;;;;;;0.60;0.43;;;;;;;7.66;57.02;101238.22;5018967;28;97365;-77
2023/10/15 06:21:43;;;;;;;1.00;0.40;;;;;;;7.64;57.03;101240.69;5019595;27;97870;-76
2023/10/15 06:24:10;;;;;;;0.70;0.50;;;;;;;7.61;57.21;101234.16;5019447;28;97085;-77
2023/10/15 06:26:36;;;;;;;1.07;0.50;;;;;;;7.60;57.10;101246.41;5019714;28;97566;-76
2023/10/15 06:29:01;;;;;;;1.50;0.40;;;;;;;7.57;57.19;101249.38;5019181;28;97081;-75
2023/10/15 06:31:28;;;;;;;0.70;0.40;;;;;;;7.55;57.11;101258.09;5019504;28;97087;-76
2023/10/15 06:33:55;;;;;;;1.60;0.50;;;;;;;7.56;57.16;101253.34;5019279;28;97163;-76
2023/10/15 06:36:21;;;;;;;0.70;0.43;;;;;;;7.54;57.26;101251.09;5017555;27;99659;-77
2023/10/15 06:38:47;;;;;;;5.57;0.67;;;;;;;7.55;57.27;101266.34;5035395;27;100230;-75
2023/10/15 06:41:12;;;;;;;0.97;0.50;;;;;;;7.57;57.21;101257.63;5017327;28;97134;-75
2023/10/15 06:43:37;;;;;;;1.80;0.50;;;;;;;7.59;57.46;101263.41;5017877;28;97251;-75
2023/10/15 06:46:07;;;;;;;0.90;0.47;;;;;;;7.62;57.27;101287.97;5018975;27;97079;-77
2023/10/15 06:48:33;;;;;;;0.57;0.40;;;;;;;7.65;57.09;101286.25;5017684;27;98890;-76
2023/10/15 06:51:02;;;;;;;1.23;0.60;;;;;;;7.67;57.12;101286.53;5019516;27;97577;-75
2023/10/15 06:53:28;;;;;;;2.20;0.77;;;;;;;7.68;57.11;101285.31;5018091;27;97317;-76
2023/10/15 06:55:53;;;;;;;1.47;0.60;;;;;;;7.72;57.21;101280.34;5016244;28;97086;-76
2023/10/15 06:58:18;;;;;;;1.47;0.60;;;;;;;7.77;57.21;101293.44;5015677;27;100816;-75
2023/10/15 07:00:45;;;;;;;2.60;0.73;;;;;;;7.80;57.15;101282.22;5020657;28;97330;-75
2023/10/15 07:03:10;;;;;;;1.63;0.70;;;;;;;7.86;57.11;101287.06;5018511;27;96915;-76
2023/10/15 07:05:36;;;;;;;1.53;0.50;;;;;;;7.90;56.94;101276.56;5019799;27;101236;-76
2023/10/15 07:08:01;;;;;;;1.97;0.63;;;;;;;7.89;56.94;101284.06;5018644;27;97293;-76
2023/10/15 07:10:27;;;;;;;4.00;0.60;;;;;;;7.89;57.04;101286.84;5017361;27;96821;-76
2023/10/15 07:12:54;;;;;;;2.50;0.50;;;;;;;7.93;57.02;101283.84;5019823;27;97267;-76
2023/10/15 07:15:20;;;;;;;2.17;0.50;;;;;;;7.96;57.02;101289.19;5018400;28;100146;-75
2023/10/15 07:17:47;;;;;;;1.83;0.50;;;;;;;8.04;57.22;101295.00;5017049;28;100792;-74
2023/10/15 07:20:21;;;;;;;7.67;0.63;;;;;;;8.08;57.04;101304.59;5020171;28;97107;-76
2023/10/15 07:22:48;;;;;;;3.53;0.60;;;;;;;8.10;57.00;101291.09;5019194;28;97349;-76
2023/10/15 07:25:16;;;;;;;2.03;0.60;;;;;;;8.17;57.16;101309.22;5016585;28;97818;-75
2023/10/15 07:27:44;;;;;;;1.00;0.50;;;;;;;8.24;57.22;101309.59;5019500;28;97270;-76
2023/10/15 07:30:12;;;;;;;0.87;0.63;;;;;;;8.30;57.32;101304.13;5017871;27;97152;-75
2023/10/15 07:32:38;;;;;;;1.30;0.50;;;;;;;8.37;57.08;101309.97;5017067;27;97241;-76
2023/10/15 07:35:04;;;;;;;3.43;0.90;;;;;;;8.38;56.88;101305.97;5033464;27;100240;-75
2023/10/15 07:37:29;;;;;;;1.20;0.57;;;;;;;8.45;56.89;101304.78;5019208;27;97179;-76
2023/10/15 07:39:54;;;;;;;1.07;0.40;;;;;;;8.48;56.90;101293.56;5019300;28;97391;-76
2023/10/15 07:42:19;;;;;;;2.10;0.70;;;;;;;8.52;57.06;101318.16;5017379;27;97253;-73
2023/10/15 07:44:45;;;;;;;0.93;0.50;;;;;;;8.50;56.98;101318.63;5019628;28;98157;-76
2023/10/15 07:47:11;;;;;;;2.03;0.70;;;;;;;8.52;56.87;101299.59;5020742;28;97220;-76
2023/10/15 07:49:36;;;;;;;2.20;0.70;;;;;;;8.53;57.10;101297.63;5016202;27;97139;-77
2023/10/15 07:52:03;;;;;;;3.33;0.60;;;;;;;8.50;56.84;101291.06;5018788;27;97134;-77
2023/10/15 07:54:30;;;;;;;1.53;0.50;;;;;;;8.46;56.87;101304.31;5017209;28;97599;-76
2023/10/15 07:56:55;;;;;;;2.33;0.63;;;;;;;8.42;56.89;101312.06;5033878;27;99775;-76
2023/10/15 07:59:21;;;;;;;1.73;0.60;;;;;;;8.39;57.00;101340.59;5014305;27;97423;-76
2023/10/15 08:01:47;;;;;;;0.90;0.50;;;;;;;8.45;57.11;101324.09;5016969;27;97180;-77
2023/10/15 08:04:13;;;;;;;1.97;0.70;;;;;;;8.48;57.16;101337.69;5016832;27;97318;-76
2023/10/15 08:06:38;;;;;;;1.10;0.50;;;;;;;8.53;57.06;101323.16;5014597;28;99073;-76
2023/10/15 08:09:04;;;;;;;1.20;0.60;;;;;;;8.54;56.90;101338.50;5018585;28;96964;-76
2023/10/15 08:11:29;;;;;;;1.87;0.60;;;;;;;8.60;57.17;101335.78;5017935;28;97205;-75
2023/10/15 08:13:54;;;;;;;3.40;0.60;;;;;;;8.70;57.01;101345.41;5017474;28;101125;-75
2023/10/15 08:16:20;;;;;;;1.33;0.67;;;;;;;8.86;57.13;101352.34;5034052;27;99506;-75
2023/10/15 08:18:46;;;;;;;1.47;0.63;;;;;;;8.93;56.70;101362.94;5017034;28;97092;-75
2023/10/15 08:21:11;;;;;;;1.37;0.70;;;;;;;8.95;56.85;101368.75;5017292;27;97111;-75
2023/10/15 08:23:38;;;;;;;0.60;0.60;;;;;;;8.98;56.87;101376.81;5016992;27;97041;-75
2023/10/15 08:26:05;;;;;;;3.17;0.60;;;;;;;8.98;56.67;101368.53;5016143;28;97236;-76
2023/10/15 08:28:31;;;;;;;0.60;0.40;;;;;;;8.98;56.66;101376.03;5018666;27;99164;-76
2023/10/15 08:30:57;;;;;;;2.50;0.93;;;;;;;8.99;56.69;101377.56;5010421;28;97461;-76
2023/10/15 08:33:23;;;;;;;0.83;0.50;;;;;;;9.05;56.45;101375.59;5018331;27;97744;-76
2023/10/15 08:35:49;;;;;;;1.90;1.40;;;;;;;9.01;56.53;101381.34;5016091;27;98613;-75
2023/10/15 08:38:15;;;;;;;2.57;2.27;;;;;;;9.01;56.47;101386.13;5016438;27;97127;-75
2023/10/15 08:40:44;;;;;;;7.50;2.20;;;;;;;9.03;56.54;101389.16;5019569;28;97201;-75
2023/10/15 08:43:15;;;;;;;1.17;1.07;;;;;;;9.05;56.38;101386.66;5022241;28;97795;-76
2023/10/15 08:45:45;;;;;;;2.87;1.53;;;;;;;9.00;56.54;101399.16;5021135;28;97751;-75
2023/10/15 08:48:11;;;;;;;1.43;0.97;;;;;;;9.06;56.76;101394.44;5022388;28;97544;-76
2023/10/15 08:50:37;;;;;;;1.70;0.90;;;;;;;9.07;56.52;101384.16;5023253;27;100526;-76
2023/10/15 08:53:04;;;;;;;4.23;0.80;;;;;;;9.12;56.69;101377.94;5020419;28;97228;-75
2023/10/15 08:55:33;;;;;;;1.30;0.50;;;;;;;9.17;56.59;101385.50;5021972;27;97747;-75
2023/10/15 08:57:59;;;;;;;1.33;0.50;;;;;;;9.23;56.71;101391.84;5022845;28;97037;-76
2023/10/15 09:00:28;;;;;;;0.87;0.37;;;;;;;9.28;56.35;101383.59;5021016;27;97099;-75
2023/10/15 09:02:56;;;;;;;0.73;0.43;;;;;;;9.31;56.30;101390.13;5022495;28;97261;-76
2023/10/15 09:05:24;;;;;;;1.73;0.50;;;;;;;9.30;56.24;101391.38;5022803;27;97084;-76
2023/10/15 09:07:52;;;;;;;1.70;0.70;;;;;;;9.30;56.20;101385.84;5021322;28;97032;-75
2023/10/15 09:10:18;;;;;;;1.23;1.13;;;;;;;9.26;56.00;101391.59;5020944;28;97570;-75
2023/10/15 09:12:43;;;;;;;1.47;1.10;;;;;;;9.27;56.12;101397.91;5037468;27;100076;-76
2023/10/15 09:15:17;;;;;;;0.80;0.77;;;;;;;9.38;56.54;101397.22;5020065;28;100045;-76
2023/10/15 09:17:49;;;;;;;1.10;0.50;;;;;;;9.43;56.03;101411.06;5021358;28;97086;-75
2023/10/15 09:20:26;;;;;;;0.80;0.53;;;;;;;9.44;56.15;101411.84;5023686;27;97070;-76
2023/10/15 09:22:51;;;;;;;0.70;0.53;;;;;;;9.49;56.13;101409.13;5020719;27;100302;-76
2023/10/15 09:25:16;;;;;;;0.93;0.40;;;;;;;9.50;55.68;101418.16;5022589;27;97289;-75
2023/10/15 09:27:46;;;;;;;0.60;0.30;;;;;;;9.46;55.87;101423.16;5019032;28;97130;-75
2023/10/15 09:30:18;;;;;;;0.70;0.57;;;;;;;9.39;55.83;101438.16;5020114;27;97140;-76
2023/10/15 09:32:47;;;;;;;1.27;0.50;;;;;;;9.38;55.86;101431.13;5021006;27;98284;-77
2023/10/15 09:35:15;;;;;;;1.47;0.53;;;;;;;9.33;55.82;101451.16;5019439;28;99175;-76
2023/10/15 09:37:41;;;;;;;1.30;0.57;;;;;;;9.32;55.81;101460.69;5019740;28;96908;-77
2023/10/15 09:40:10;;;;;;;4.43;0.60;;;;;;;9.37;56.05;101448.94;5019220;28;97329;-77
2023/10/15 09:42:39;;;;;;;1.80;0.60;;;;;;;9.48;55.72;101446.28;5019586;28;97583;-77
2023/10/15 09:45:07;;;;;;;0.60;0.40;;;;;;;9.65;55.89;101449.22;5022143;28;97352;-76
2023/10/15 09:47:33;;;;;;;2.10;0.60;;;;;;;9.82;55.83;101448.06;5020269;28;97163;-77
2023/10/15 09:50:01;;;;;;;1.20;0.60;;;;;;;10.01;55.72;101437.41;5037799;27;97303;-75
2023/10/15 09:52:29;;;;;;;1.60;0.70;;;;;;;10.22;55.40;101449.06;5020965;27;97018;-76
2023/10/15 09:54:55;;;;;;;2.37;0.80;;;;;;;10.23;55.03;101469.97;5020788;28;97820;-75
2023/10/15 09:57:23;;;;;;;1.33;0.50;;;;;;;10.09;55.05;101462.56;5022023;28;97070;-77
2023/10/15 09:59:53;;;;;;;1.80;0.40;;;;;;;9.94;55.64;101466.25;5018763;27;97833;-76
2023/10/15 10:02:29;;;;;;;0.90;0.47;;;;;;;9.81;56.05;101479.72;5023114;27;98173;-73
2023/10/15 10:05:17;;;;;;;0.93;0.50;;;;;;;9.72;56.17;101474.38;5041962;27;99517;-74
2023/10/15 10:08:26;;;;;;;0.60;0.50;;;;;;;9.68;56.75;101479.38;5042803;27;97502;-73
2023/10/15 10:11:14;;;;;;;0.90;0.50;;;;;;;9.68;56.78;101487.66;5015015;28;97291;-75
2023/10/15 10:14:23;;;;;;;0.77;0.50;;;;;;;9.64;56.99;101480.84;4991208;28;100520;-77
2023/10/15 10:16:49;;;;;;;0.87;0.60;;;;;;;9.57;56.68;101476.53;5021276;28;97367;-76
2023/10/15 10:19:16;;;;;;;1.27;0.70;;;;;;;9.51;57.00;101463.88;5021614;28;97194;-75
2023/10/15 10:21:46;;;;;;;2.70;0.70;;;;;;;9.53;57.11;101466.91;5022265;28;97166;-75
2023/10/15 10:24:12;;;;;;;2.20;0.50;;;;;;;9.44;56.87;101462.31;5019854;28;97398;-75
2023/10/15 10:26:41;;;;;;;1.67;0.50;;;;;;;9.40;57.30;101469.31;5020745;28;97155;-75
2023/10/15 10:29:09;;;;;;;2.00;0.87;;;;;;;9.43;57.13;101477.34;5021708;28;97254;-75
2023/10/15 10:31:36;;;;;;;0.90;0.40;;;;;;;9.44;57.38;101473.34;5019854;28;96972;-76
2023/10/15 10:34:03;;;;;;;0.70;0.40;;;;;;;9.52;57.41;101466.13;5018751;27;98562;-76
2023/10/15 10:36:30;;;;;;;1.63;0.50;;;;;;;9.57;57.45;101479.28;5021512;27;97409;-76
2023/10/15 10:39:10;;;;;;;1.33;0.70;;;;;;;9.58;57.29;101466.22;5021068;27;97441;-76
2023/10/15 10:41:51;;;;;;;0.70;0.50;;;;;;;9.54;57.56;101479.47;5021615;28;97151;-74
2023/10/15 10:44:23;;;;;;;2.30;0.50;;;;;;;9.53;57.37;101472.44;5019202;28;100938;-76
2023/10/15 10:46:52;;;;;;;1.17;0.60;;;;;;;9.47;57.44;101472.41;5018185;28;97551;-76
2023/10/15 10:49:27;;;;;;;1.20;0.50;;;;;;;9.47;57.54;101460.59;5019882;28;97210;-76
2023/10/15 10:52:12;;;;;;;0.70;0.50;;;;;;;9.42;57.30;101458.53;5020343;28;97011;-76
2023/10/15 10:54:37;;;;;;;0.80;0.77;;;;;;;9.41;57.55;101470.81;5021335;28;97040;-75
2023/10/15 10:57:07;;;;;;;2.90;0.50;;;;;;;9.45;57.42;101479.66;5019876;28;97237;-75
2023/10/15 10:59:32;;;;;;;0.60;0.40;;;;;;;9.43;57.32;101471.84;5021381;28;97246;-75
2023/10/15 11:01:59;;;;;;;3.00;0.40;;;;;;;9.39;57.25;101476.81;5020595;27;97267;-76
2023/10/15 11:04:25;;;;;;;2.87;1.10;;;;;;;9.37;57.18;101490.34;5020482;27;99636;-75
2023/10/15 11:06:50;;;;;;;2.10;1.53;;;;;;;9.39;57.45;101479.59;5019816;27;96917;-76
2023/10/15 11:09:15;;;;;;;1.43;1.27;;;;;;;9.45;57.58;101476.88;5022046;28;97253;-76
2023/10/15 11:11:49;;;;;;;1.27;0.90;;;;;;;9.54;57.53;101476.72;5019671;28;97300;-76
2023/10/15 11:14:16;;;;;;;1.23;0.80;;;;;;;9.68;57.44;101479.38;5016452;27;98113;-75
2023/10/15 11:16:42;;;;;;;0.80;0.60;;;;;;;9.86;57.39;101484.56;5018478;27;100438;-75
2023/10/15 11:19:32;;;;;;;0.70;0.60;;;;;;;10.03;57.00;101485.44;5020833;27;97321;-75
2023/10/15 11:21:58;;;;;;;3.03;0.67;;;;;;;10.21;56.84;101484.28;5018954;28;98490;-76
2023/10/15 11:24:26;;;;;;;0.90;0.40;;;;;;;10.38;56.60;101481.59;5020687;28;97491;-76
2023/10/15 11:26:56;;;;;;;8.17;0.70;;;;;;;10.49;56.36;101484.44;5019789;27;97870;-77
2023/10/15 11:29:23;;;;;;;1.10;0.60;;;;;;;10.64;56.11;101476.69;5020557;28;97046;-76
2023/10/15 11:31:52;;;;;;;0.60;0.57;;;;;;;10.79;56.01;101488.38;5037111;27;97170;-77
2023/10/15 11:34:20;;;;;;;1.07;0.60;;;;;;;10.98;55.98;101472.09;5020513;28;97066;-75
2023/10/15 11:36:49;;;;;;;0.70;0.60;;;;;;;11.21;55.58;101468.09;5017987;28;100277;-77
2023/10/15 11:39:19;;;;;;;1.63;0.50;;;;;;;11.37;55.34;101470.16;5021065;27;96740;-76
2023/10/15 11:41:51;;;;;;;3.23;0.70;;;;;;;11.54;54.85;101468.13;5018213;27;96733;-76
2023/10/15 11:44:18;;;;;;;2.97;0.40;;;;;;;11.72;54.95;101464.13;5019400;28;96640;-75
2023/10/15 11:46:46;;;;;;;2.30;0.60;;;;;;;11.93;54.81;101470.91;5020352;28;97312;-76